Newtown, United Kingdom
Current Conditions -  °F | °C
As of 2:50 AM on Tuesday 21 Oct 2014 (Local Time) from EGOS Reporting Station
Rain Showers Rain Showers  
Wind Chill: 55°   Ceiling: 2200
Heat Index: 55°   Visibility: 3mi
Dew Point: 52°   Wind: 15mph
Humidity: 88%   Direction: 190°S
Pressure: 29.53"   Gusts: NA
Location:  52.52°N, 3.3°W
Report Text: EGOS 210150Z AUTO 19013KT 5000 SHRA BKN022/// SCT050/// 13/11 Q1000
Loading
Personal Weather Stations






























Interactive Weather Map
Tropical Storm Tracking
New forecast layout! Learn more

10-Day Weather Forecast

Advertisements
Track Severe Weather on mobile